sensor_id;sensor_type;location;lat;lon;timestamp;P1;durP1;ratioP1;P2;durP2;ratioP2
11797;SDS011;5956;51.428;6.682;2024-01-27T00:00:33;13.00;;;4.40;;
11797;SDS011;5956;51.428;6.682;2024-01-27T00:03:00;11.90;;;4.53;;
11797;SDS011;5956;51.428;6.682;2024-01-27T00:05:29;12.60;;;4.77;;
11797;SDS011;5956;51.428;6.682;2024-01-27T00:07:55;11.10;;;4.27;;
11797;SDS011;5956;51.428;6.682;2024-01-27T00:10:22;10.57;;;4.33;;
11797;SDS011;5956;51.428;6.682;2024-01-27T00:12:48;14.87;;;5.43;;
11797;SDS011;5956;51.428;6.682;2024-01-27T00:15:15;9.83;;;4.40;;
11797;SDS011;5956;51.428;6.682;2024-01-27T00:17:41;12.30;;;4.27;;
11797;SDS011;5956;51.428;6.682;2024-01-27T00:20:08;15.33;;;4.93;;
11797;SDS011;5956;51.428;6.682;2024-01-27T00:22:36;7.50;;;3.83;;
11797;SDS011;5956;51.428;6.682;2024-01-27T00:25:03;13.33;;;5.00;;
11797;SDS011;5956;51.428;6.682;2024-01-27T00:27:29;13.00;;;4.43;;
11797;SDS011;5956;51.428;6.682;2024-01-27T00:29:56;15.53;;;5.17;;
11797;SDS011;5956;51.428;6.682;2024-01-27T00:32:22;17.00;;;5.17;;
11797;SDS011;5956;51.428;6.682;2024-01-27T00:34:49;11.67;;;5.07;;
11797;SDS011;5956;51.428;6.682;2024-01-27T00:37:15;17.67;;;4.73;;
11797;SDS011;5956;51.428;6.682;2024-01-27T00:39:44;8.90;;;4.07;;
11797;SDS011;5956;51.428;6.682;2024-01-27T00:42:11;9.10;;;4.67;;
11797;SDS011;5956;51.428;6.682;2024-01-27T00:44:37;8.27;;;4.50;;
11797;SDS011;5956;51.428;6.682;2024-01-27T00:47:03;11.43;;;4.43;;
11797;SDS011;5956;51.428;6.682;2024-01-27T00:49:30;12.23;;;3.97;;
11797;SDS011;5956;51.428;6.682;2024-01-27T00:51:56;14.63;;;4.67;;
11797;SDS011;5956;51.428;6.682;2024-01-27T00:54:23;12.37;;;4.20;;
11797;SDS011;5956;51.428;6.682;2024-01-27T00:56:52;10.17;;;4.37;;
11797;SDS011;5956;51.428;6.682;2024-01-27T00:59:18;12.30;;;4.60;;
11797;SDS011;5956;51.428;6.682;2024-01-27T01:01:45;10.30;;;4.53;;
11797;SDS011;5956;51.428;6.682;2024-01-27T01:04:11;11.90;;;4.93;;
11797;SDS011;5956;51.428;6.682;2024-01-27T01:06:38;12.60;;;4.63;;
11797;SDS011;5956;51.428;6.682;2024-01-27T01:09:05;9.37;;;4.67;;
11797;SDS011;5956;51.428;6.682;2024-01-27T01:11:31;12.23;;;5.00;;
11797;SDS011;5956;51.428;6.682;2024-01-27T01:13:59;11.67;;;5.00;;
11797;SDS011;5956;51.428;6.682;2024-01-27T01:16:26;18.20;;;4.87;;
11797;SDS011;5956;51.428;6.682;2024-01-27T01:18:52;7.80;;;4.53;;
11797;SDS011;5956;51.428;6.682;2024-01-27T01:21:18;10.07;;;4.27;;
11797;SDS011;5956;51.428;6.682;2024-01-27T01:23:45;13.23;;;4.90;;
11797;SDS011;5956;51.428;6.682;2024-01-27T01:26:11;10.83;;;4.37;;
11797;SDS011;5956;51.428;6.682;2024-01-27T01:28:38;8.73;;;4.93;;
11797;SDS011;5956;51.428;6.682;2024-01-27T01:31:07;9.77;;;4.43;;
11797;SDS011;5956;51.428;6.682;2024-01-27T01:33:33;12.03;;;5.67;;
11797;SDS011;5956;51.428;6.682;2024-01-27T01:36:00;15.80;;;4.70;;
11797;SDS011;5956;51.428;6.682;2024-01-27T01:38:26;12.73;;;4.97;;
11797;SDS011;5956;51.428;6.682;2024-01-27T01:40:53;9.43;;;4.90;;
11797;SDS011;5956;51.428;6.682;2024-01-27T01:43:19;10.00;;;4.47;;
11797;SDS011;5956;51.428;6.682;2024-01-27T01:45:46;12.27;;;4.90;;
11797;SDS011;5956;51.428;6.682;2024-01-27T01:48:14;13.37;;;5.37;;
11797;SDS011;5956;51.428;6.682;2024-01-27T01:50:40;11.57;;;4.73;;
11797;SDS011;5956;51.428;6.682;2024-01-27T01:53:07;10.87;;;4.70;;
11797;SDS011;5956;51.428;6.682;2024-01-27T01:55:34;10.00;;;4.80;;
11797;SDS011;5956;51.428;6.682;2024-01-27T01:58:00;11.87;;;5.33;;
11797;SDS011;5956;51.428;6.682;2024-01-27T02:00:27;11.30;;;4.80;;
11797;SDS011;5956;51.428;6.682;2024-01-27T02:02:54;16.70;;;4.93;;
11797;SDS011;5956;51.428;6.682;2024-01-27T02:05:21;16.07;;;4.60;;
11797;SDS011;5956;51.428;6.682;2024-01-27T02:07:48;12.60;;;4.83;;
11797;SDS011;5956;51.428;6.682;2024-01-27T02:10:15;12.27;;;4.90;;
11797;SDS011;5956;51.428;6.682;2024-01-27T02:12:42;13.23;;;5.33;;
11797;SDS011;5956;51.428;6.682;2024-01-27T02:15:09;12.97;;;5.27;;
11797;SDS011;5956;51.428;6.682;2024-01-27T02:17:36;12.30;;;5.67;;
11797;SDS011;5956;51.428;6.682;2024-01-27T02:20:02;15.50;;;4.80;;
11797;SDS011;5956;51.428;6.682;2024-01-27T02:22:30;11.67;;;5.57;;
11797;SDS011;5956;51.428;6.682;2024-01-27T02:24:57;15.00;;;5.13;;
11797;SDS011;5956;51.428;6.682;2024-01-27T02:27:24;11.83;;;5.00;;
11797;SDS011;5956;51.428;6.682;2024-01-27T02:29:50;13.73;;;4.63;;
11797;SDS011;5956;51.428;6.682;2024-01-27T02:32:17;11.47;;;5.07;;
11797;SDS011;5956;51.428;6.682;2024-01-27T02:34:43;10.20;;;4.47;;
11797;SDS011;5956;51.428;6.682;2024-01-27T02:37:09;19.57;;;5.03;;
11797;SDS011;5956;51.428;6.682;2024-01-27T02:39:36;13.43;;;4.70;;
11797;SDS011;5956;51.428;6.682;2024-01-27T02:42:04;10.73;;;4.80;;
11797;SDS011;5956;51.428;6.682;2024-01-27T02:44:30;11.70;;;5.30;;
11797;SDS011;5956;51.428;6.682;2024-01-27T02:46:57;11.50;;;5.30;;
11797;SDS011;5956;51.428;6.682;2024-01-27T02:49:23;11.20;;;5.27;;
11797;SDS011;5956;51.428;6.682;2024-01-27T02:51:50;11.90;;;5.30;;
11797;SDS011;5956;51.428;6.682;2024-01-27T02:54:16;8.73;;;4.50;;
11797;SDS011;5956;51.428;6.682;2024-01-27T02:56:43;13.27;;;4.90;;
11797;SDS011;5956;51.428;6.682;2024-01-27T02:59:12;13.50;;;5.37;;
11797;SDS011;5956;51.428;6.682;2024-01-27T03:01:39;11.07;;;4.87;;
11797;SDS011;5956;51.428;6.682;2024-01-27T03:04:05;11.17;;;5.20;;
11797;SDS011;5956;51.428;6.682;2024-01-27T03:06:32;12.43;;;4.93;;
11797;SDS011;5956;51.428;6.682;2024-01-27T03:08:59;12.03;;;4.97;;
11797;SDS011;5956;51.428;6.682;2024-01-27T03:11:25;12.13;;;5.47;;
11797;SDS011;5956;51.428;6.682;2024-01-27T03:13:52;11.70;;;4.90;;
11797;SDS011;5956;51.428;6.682;2024-01-27T03:16:20;15.03;;;5.30;;
11797;SDS011;5956;51.428;6.682;2024-01-27T03:18:46;11.47;;;5.70;;
11797;SDS011;5956;51.428;6.682;2024-01-27T03:21:13;10.23;;;4.77;;
11797;SDS011;5956;51.428;6.682;2024-01-27T03:23:39;10.47;;;4.43;;
11797;SDS011;5956;51.428;6.682;2024-01-27T03:26:06;11.33;;;4.67;;
11797;SDS011;5956;51.428;6.682;2024-01-27T03:28:32;14.20;;;5.13;;
11797;SDS011;5956;51.428;6.682;2024-01-27T03:30:59;12.77;;;5.50;;
11797;SDS011;5956;51.428;6.682;2024-01-27T03:33:27;13.70;;;5.53;;
11797;SDS011;5956;51.428;6.682;2024-01-27T03:35:55;14.07;;;5.60;;
11797;SDS011;5956;51.428;6.682;2024-01-27T03:38:22;12.03;;;5.80;;
11797;SDS011;5956;51.428;6.682;2024-01-27T03:40:48;14.03;;;5.63;;
11797;SDS011;5956;51.428;6.682;2024-01-27T03:43:15;10.30;;;5.10;;
11797;SDS011;5956;51.428;6.682;2024-01-27T03:45:41;6.37;;;4.77;;
11797;SDS011;5956;51.428;6.682;2024-01-27T03:48:08;12.73;;;5.63;;
11797;SDS011;5956;51.428;6.682;2024-01-27T03:50:35;12.57;;;6.00;;
11797;SDS011;5956;51.428;6.682;2024-01-27T03:53:02;13.60;;;5.17;;
11797;SDS011;5956;51.428;6.682;2024-01-27T03:55:28;14.07;;;6.87;;
11797;SDS011;5956;51.428;6.682;2024-01-27T03:57:56;13.67;;;5.97;;
11797;SDS011;5956;51.428;6.682;2024-01-27T04:00:22;15.67;;;5.83;;
11797;SDS011;5956;51.428;6.682;2024-01-27T04:02:49;13.47;;;6.30;;
11797;SDS011;5956;51.428;6.682;2024-01-27T04:05:16;11.73;;;6.17;;
11797;SDS011;5956;51.428;6.682;2024-01-27T04:07:44;14.93;;;6.83;;
11797;SDS011;5956;51.428;6.682;2024-01-27T04:10:11;14.10;;;6.20;;
11797;SDS011;5956;51.428;6.682;2024-01-27T04:12:37;16.60;;;6.83;;
11797;SDS011;5956;51.428;6.682;2024-01-27T04:15:04;9.00;;;5.90;;
11797;SDS011;5956;51.428;6.682;2024-01-27T04:17:31;10.50;;;6.20;;
11797;SDS011;5956;51.428;6.682;2024-01-27T04:19:58;10.07;;;6.13;;
11797;SDS011;5956;51.428;6.682;2024-01-27T04:22:24;13.50;;;6.83;;
11797;SDS011;5956;51.428;6.682;2024-01-27T04:24:52;15.27;;;6.30;;
11797;SDS011;5956;51.428;6.682;2024-01-27T04:27:19;13.77;;;6.27;;
11797;SDS011;5956;51.428;6.682;2024-01-27T04:29:45;10.53;;;5.90;;
11797;SDS011;5956;51.428;6.682;2024-01-27T04:32:12;13.70;;;6.60;;
11797;SDS011;5956;51.428;6.682;2024-01-27T04:34:39;12.13;;;5.97;;
11797;SDS011;5956;51.428;6.682;2024-01-27T04:37:05;12.23;;;6.80;;
11797;SDS011;5956;51.428;6.682;2024-01-27T04:39:32;13.93;;;6.50;;
11797;SDS011;5956;51.428;6.682;2024-01-27T04:42:00;13.07;;;6.50;;
11797;SDS011;5956;51.428;6.682;2024-01-27T04:44:26;10.67;;;5.80;;
11797;SDS011;5956;51.428;6.682;2024-01-27T04:46:53;9.07;;;5.60;;
11797;SDS011;5956;51.428;6.682;2024-01-27T04:49:19;12.30;;;6.07;;
11797;SDS011;5956;51.428;6.682;2024-01-27T04:51:47;13.13;;;6.50;;
11797;SDS011;5956;51.428;6.682;2024-01-27T04:54:13;12.80;;;6.73;;
11797;SDS011;5956;51.428;6.682;2024-01-27T04:56:40;12.83;;;5.97;;
11797;SDS011;5956;51.428;6.682;2024-01-27T04:59:07;8.73;;;5.97;;
11797;SDS011;5956;51.428;6.682;2024-01-27T05:01:34;11.73;;;5.93;;
11797;SDS011;5956;51.428;6.682;2024-01-27T05:04:00;11.53;;;6.73;;
11797;SDS011;5956;51.428;6.682;2024-01-27T05:06:27;12.57;;;6.83;;
11797;SDS011;5956;51.428;6.682;2024-01-27T05:08:53;8.67;;;5.63;;
11797;SDS011;5956;51.428;6.682;2024-01-27T05:11:25;14.20;;;5.70;;
11797;SDS011;5956;51.428;6.682;2024-01-27T05:13:51;9.40;;;6.20;;
11797;SDS011;5956;51.428;6.682;2024-01-27T05:16:19;14.23;;;6.37;;
11797;SDS011;5956;51.428;6.682;2024-01-27T05:18:45;13.27;;;6.33;;
11797;SDS011;5956;51.428;6.682;2024-01-27T05:21:12;9.83;;;5.73;;
11797;SDS011;5956;51.428;6.682;2024-01-27T05:23:38;11.33;;;6.20;;
11797;SDS011;5956;51.428;6.682;2024-01-27T05:26:05;17.43;;;6.77;;
11797;SDS011;5956;51.428;6.682;2024-01-27T05:28:32;16.10;;;7.13;;
11797;SDS011;5956;51.428;6.682;2024-01-27T05:30:58;11.60;;;6.37;;
11797;SDS011;5956;51.428;6.682;2024-01-27T05:33:26;10.73;;;5.80;;
11797;SDS011;5956;51.428;6.682;2024-01-27T05:35:53;13.43;;;6.67;;
11797;SDS011;5956;51.428;6.682;2024-01-27T05:38:19;12.73;;;6.60;;
11797;SDS011;5956;51.428;6.682;2024-01-27T05:40:46;10.67;;;6.57;;
11797;SDS011;5956;51.428;6.682;2024-01-27T05:43:14;13.10;;;6.70;;
11797;SDS011;5956;51.428;6.682;2024-01-27T05:45:40;13.97;;;6.90;;
11797;SDS011;5956;51.428;6.682;2024-01-27T05:48:07;17.17;;;7.50;;
11797;SDS011;5956;51.428;6.682;2024-01-27T05:50:35;16.63;;;7.53;;
11797;SDS011;5956;51.428;6.682;2024-01-27T05:53:02;12.30;;;7.13;;
11797;SDS011;5956;51.428;6.682;2024-01-27T05:55:29;11.50;;;6.47;;
11797;SDS011;5956;51.428;6.682;2024-01-27T05:57:55;14.43;;;6.50;;
11797;SDS011;5956;51.428;6.682;2024-01-27T06:00:23;12.03;;;6.53;;
11797;SDS011;5956;51.428;6.682;2024-01-27T06:02:49;14.13;;;6.73;;
11797;SDS011;5956;51.428;6.682;2024-01-27T06:05:16;10.60;;;6.07;;
11797;SDS011;5956;51.428;6.682;2024-01-27T06:07:45;12.77;;;6.60;;
11797;SDS011;5956;51.428;6.682;2024-01-27T06:10:13;17.27;;;6.97;;
11797;SDS011;5956;51.428;6.682;2024-01-27T06:12:39;11.53;;;7.43;;
11797;SDS011;5956;51.428;6.682;2024-01-27T06:15:06;10.57;;;6.40;;
11797;SDS011;5956;51.428;6.682;2024-01-27T06:17:34;13.57;;;7.03;;
11797;SDS011;5956;51.428;6.682;2024-01-27T06:20:00;9.63;;;6.20;;
11797;SDS011;5956;51.428;6.682;2024-01-27T06:22:26;11.10;;;6.30;;
11797;SDS011;5956;51.428;6.682;2024-01-27T06:24:54;12.30;;;6.20;;
11797;SDS011;5956;51.428;6.682;2024-01-27T06:27:21;13.80;;;7.30;;
11797;SDS011;5956;51.428;6.682;2024-01-27T06:29:47;9.80;;;6.40;;
11797;SDS011;5956;51.428;6.682;2024-01-27T06:32:14;12.80;;;6.67;;
11797;SDS011;5956;51.428;6.682;2024-01-27T06:34:40;14.67;;;7.27;;
11797;SDS011;5956;51.428;6.682;2024-01-27T06:37:07;12.07;;;6.30;;
11797;SDS011;5956;51.428;6.682;2024-01-27T06:39:33;12.70;;;7.03;;
11797;SDS011;5956;51.428;6.682;2024-01-27T06:42:01;11.20;;;6.13;;
11797;SDS011;5956;51.428;6.682;2024-01-27T06:44:28;11.90;;;6.27;;
11797;SDS011;5956;51.428;6.682;2024-01-27T06:46:54;13.33;;;6.43;;
11797;SDS011;5956;51.428;6.682;2024-01-27T06:49:20;17.23;;;6.60;;
11797;SDS011;5956;51.428;6.682;2024-01-27T06:51:47;13.13;;;6.47;;
11797;SDS011;5956;51.428;6.682;2024-01-27T06:54:13;12.00;;;6.20;;
11797;SDS011;5956;51.428;6.682;2024-01-27T06:56:39;14.67;;;6.40;;
11797;SDS011;5956;51.428;6.682;2024-01-27T06:59:07;12.87;;;6.10;;
11797;SDS011;5956;51.428;6.682;2024-01-27T07:01:33;18.33;;;6.57;;
11797;SDS011;5956;51.428;6.682;2024-01-27T07:04:00;15.63;;;6.07;;
11797;SDS011;5956;51.428;6.682;2024-01-27T07:06:26;9.43;;;5.73;;
11797;SDS011;5956;51.428;6.682;2024-01-27T07:08:53;13.50;;;6.20;;
11797;SDS011;5956;51.428;6.682;2024-01-27T07:11:19;8.87;;;5.67;;
11797;SDS011;5956;51.428;6.682;2024-01-27T07:13:46;13.60;;;6.47;;
11797;SDS011;5956;51.428;6.682;2024-01-27T07:16:14;13.13;;;6.30;;
11797;SDS011;5956;51.428;6.682;2024-01-27T07:18:40;10.07;;;5.77;;
11797;SDS011;5956;51.428;6.682;2024-01-27T07:21:06;14.40;;;6.93;;
11797;SDS011;5956;51.428;6.682;2024-01-27T07:23:33;13.37;;;6.77;;
11797;SDS011;5956;51.428;6.682;2024-01-27T07:26:00;15.17;;;6.23;;
11797;SDS011;5956;51.428;6.682;2024-01-27T07:28:28;14.30;;;6.23;;
11797;SDS011;5956;51.428;6.682;2024-01-27T07:30:57;11.07;;;6.47;;
11797;SDS011;5956;51.428;6.682;2024-01-27T07:33:26;13.00;;;6.23;;
11797;SDS011;5956;51.428;6.682;2024-01-27T07:35:53;14.13;;;6.10;;
11797;SDS011;5956;51.428;6.682;2024-01-27T07:38:19;17.07;;;6.67;;
11797;SDS011;5956;51.428;6.682;2024-01-27T07:40:48;11.80;;;6.27;;
11797;SDS011;5956;51.428;6.682;2024-01-27T07:43:15;13.23;;;6.40;;
11797;SDS011;5956;51.428;6.682;2024-01-27T07:45:42;15.67;;;6.90;;
11797;SDS011;5956;51.428;6.682;2024-01-27T07:48:10;12.60;;;6.27;;
11797;SDS011;5956;51.428;6.682;2024-01-27T07:50:38;14.07;;;6.20;;
11797;SDS011;5956;51.428;6.682;2024-01-27T07:53:05;15.30;;;7.00;;
11797;SDS011;5956;51.428;6.682;2024-01-27T07:55:32;18.27;;;6.87;;
11797;SDS011;5956;51.428;6.682;2024-01-27T07:57:59;12.50;;;6.70;;
11797;SDS011;5956;51.428;6.682;2024-01-27T08:00:27;12.97;;;6.00;;
11797;SDS011;5956;51.428;6.682;2024-01-27T08:02:53;18.40;;;7.00;;
11797;SDS011;5956;51.428;6.682;2024-01-27T08:05:20;14.13;;;6.53;;
11797;SDS011;5956;51.428;6.682;2024-01-27T08:07:48;15.57;;;7.57;;
11797;SDS011;5956;51.428;6.682;2024-01-27T08:10:15;11.77;;;6.50;;
11797;SDS011;5956;51.428;6.682;2024-01-27T08:12:41;20.27;;;7.10;;
11797;SDS011;5956;51.428;6.682;2024-01-27T08:15:07;17.23;;;7.13;;
11797;SDS011;5956;51.428;6.682;2024-01-27T08:17:34;12.23;;;6.97;;
11797;SDS011;5956;51.428;6.682;2024-01-27T08:20:00;16.87;;;6.30;;
11797;SDS011;5956;51.428;6.682;2024-01-27T08:22:27;16.40;;;6.80;;
11797;SDS011;5956;51.428;6.682;2024-01-27T08:24:55;21.00;;;8.43;;
11797;SDS011;5956;51.428;6.682;2024-01-27T08:27:22;14.73;;;7.50;;
11797;SDS011;5956;51.428;6.682;2024-01-27T08:29:51;12.37;;;7.37;;
11797;SDS011;5956;51.428;6.682;2024-01-27T08:32:17;11.43;;;6.93;;
11797;SDS011;5956;51.428;6.682;2024-01-27T08:34:44;13.70;;;7.87;;
11797;SDS011;5956;51.428;6.682;2024-01-27T08:43:09;16.33;;;7.43;;
11797;SDS011;5956;51.428;6.682;2024-01-27T08:45:38;17.33;;;7.90;;
11797;SDS011;5956;51.428;6.682;2024-01-27T08:48:07;16.90;;;7.27;;
11797;SDS011;5956;51.428;6.682;2024-01-27T08:50:35;17.47;;;8.00;;
11797;SDS011;5956;51.428;6.682;2024-01-27T08:53:02;17.20;;;7.47;;
11797;SDS011;5956;51.428;6.682;2024-01-27T08:55:29;13.20;;;7.47;;
11797;SDS011;5956;51.428;6.682;2024-01-27T08:57:56;16.07;;;7.50;;
11797;SDS011;5956;51.428;6.682;2024-01-27T09:00:24;18.67;;;7.90;;
11797;SDS011;5956;51.428;6.682;2024-01-27T09:02:51;15.47;;;7.37;;
11797;SDS011;5956;51.428;6.682;2024-01-27T09:05:18;16.97;;;7.63;;
11797;SDS011;5956;51.428;6.682;2024-01-27T09:07:45;20.90;;;7.97;;
11797;SDS011;5956;51.428;6.682;2024-01-27T09:10:12;15.67;;;6.30;;
11797;SDS011;5956;51.428;6.682;2024-01-27T09:12:41;19.67;;;8.20;;
11797;SDS011;5956;51.428;6.682;2024-01-27T09:15:08;18.00;;;8.87;;
11797;SDS011;5956;51.428;6.682;2024-01-27T09:17:36;18.47;;;8.90;;
11797;SDS011;5956;51.428;6.682;2024-01-27T09:20:04;19.93;;;7.57;;
11797;SDS011;5956;51.428;6.682;2024-01-27T09:22:31;16.27;;;7.43;;
11797;SDS011;5956;51.428;6.682;2024-01-27T09:24:58;18.93;;;7.77;;
11797;SDS011;5956;51.428;6.682;2024-01-27T09:27:25;16.37;;;7.40;;
11797;SDS011;5956;51.428;6.682;2024-01-27T09:29:52;16.93;;;8.53;;
11797;SDS011;5956;51.428;6.682;2024-01-27T09:32:19;18.07;;;8.00;;
11797;SDS011;5956;51.428;6.682;2024-01-27T09:34:47;16.53;;;7.67;;
11797;SDS011;5956;51.428;6.682;2024-01-27T09:37:14;16.13;;;8.70;;
11797;SDS011;5956;51.428;6.682;2024-01-27T09:39:41;19.37;;;9.23;;
11797;SDS011;5956;51.428;6.682;2024-01-27T09:42:07;20.43;;;9.83;;
11797;SDS011;5956;51.428;6.682;2024-01-27T09:44:35;19.23;;;9.93;;
11797;SDS011;5956;51.428;6.682;2024-01-27T09:47:02;20.27;;;10.13;;
11797;SDS011;5956;51.428;6.682;2024-01-27T09:49:29;19.33;;;9.43;;
11797;SDS011;5956;51.428;6.682;2024-01-27T09:51:58;18.20;;;9.67;;
11797;SDS011;5956;51.428;6.682;2024-01-27T09:54:25;16.50;;;8.97;;
11797;SDS011;5956;51.428;6.682;2024-01-27T09:56:52;16.63;;;9.03;;
11797;SDS011;5956;51.428;6.682;2024-01-27T09:59:19;15.77;;;8.83;;
11797;SDS011;5956;51.428;6.682;2024-01-27T10:01:48;19.33;;;8.70;;
11797;SDS011;5956;51.428;6.682;2024-01-27T10:04:16;17.83;;;9.50;;
11797;SDS011;5956;51.428;6.682;2024-01-27T10:06:44;19.77;;;9.63;;
11797;SDS011;5956;51.428;6.682;2024-01-27T10:09:12;15.07;;;8.40;;
11797;SDS011;5956;51.428;6.682;2024-01-27T10:11:45;20.43;;;9.90;;
11797;SDS011;5956;51.428;6.682;2024-01-27T10:14:21;15.40;;;9.10;;
11797;SDS011;5956;51.428;6.682;2024-01-27T10:19:37;18.10;;;7.93;;
11797;SDS011;5956;51.428;6.682;2024-01-27T10:22:06;18.60;;;9.30;;
11797;SDS011;5956;51.428;6.682;2024-01-27T10:24:34;23.23;;;8.73;;
11797;SDS011;5956;51.428;6.682;2024-01-27T10:27:01;16.93;;;7.17;;
11797;SDS011;5956;51.428;6.682;2024-01-27T10:29:30;13.43;;;6.30;;
11797;SDS011;5956;51.428;6.682;2024-01-27T10:32:06;11.17;;;6.90;;
11797;SDS011;5956;51.428;6.682;2024-01-27T10:34:33;10.47;;;6.00;;
11797;SDS011;5956;51.428;6.682;2024-01-27T10:36:59;18.90;;;12.17;;
11797;SDS011;5956;51.428;6.682;2024-01-27T10:39:26;15.97;;;6.63;;
11797;SDS011;5956;51.428;6.682;2024-01-27T10:41:54;14.20;;;6.87;;
11797;SDS011;5956;51.428;6.682;2024-01-27T10:44:21;13.17;;;5.97;;
11797;SDS011;5956;51.428;6.682;2024-01-27T10:46:48;11.27;;;6.33;;
11797;SDS011;5956;51.428;6.682;2024-01-27T10:49:15;14.07;;;6.80;;
11797;SDS011;5956;51.428;6.682;2024-01-27T10:51:43;14.67;;;6.30;;
11797;SDS011;5956;51.428;6.682;2024-01-27T10:54:10;14.00;;;6.40;;
11797;SDS011;5956;51.428;6.682;2024-01-27T10:56:40;13.03;;;6.20;;
11797;SDS011;5956;51.428;6.682;2024-01-27T10:59:09;14.20;;;7.70;;
11797;SDS011;5956;51.428;6.682;2024-01-27T11:01:35;13.80;;;6.40;;
11797;SDS011;5956;51.428;6.682;2024-01-27T11:04:03;13.60;;;7.03;;
11797;SDS011;5956;51.428;6.682;2024-01-27T11:06:31;12.57;;;6.27;;
11797;SDS011;5956;51.428;6.682;2024-01-27T11:09:01;16.27;;;6.13;;
11797;SDS011;5956;51.428;6.682;2024-01-27T11:11:36;11.73;;;5.83;;
11797;SDS011;5956;51.428;6.682;2024-01-27T11:14:04;12.93;;;5.87;;
11797;SDS011;5956;51.428;6.682;2024-01-27T11:16:33;12.77;;;5.90;;
11797;SDS011;5956;51.428;6.682;2024-01-27T11:19:01;12.83;;;6.57;;
11797;SDS011;5956;51.428;6.682;2024-01-27T11:21:27;14.80;;;6.50;;
11797;SDS011;5956;51.428;6.682;2024-01-27T11:23:54;13.43;;;5.80;;
11797;SDS011;5956;51.428;6.682;2024-01-27T11:26:21;13.57;;;5.93;;
11797;SDS011;5956;51.428;6.682;2024-01-27T11:28:51;13.50;;;5.80;;
11797;SDS011;5956;51.428;6.682;2024-01-27T11:31:18;11.37;;;5.27;;
11797;SDS011;5956;51.428;6.682;2024-01-27T11:33:50;12.13;;;5.13;;
11797;SDS011;5956;51.428;6.682;2024-01-27T11:36:24;11.73;;;5.27;;
11797;SDS011;5956;51.428;6.682;2024-01-27T11:38:52;11.97;;;5.97;;
11797;SDS011;5956;51.428;6.682;2024-01-27T11:41:24;12.57;;;4.67;;
11797;SDS011;5956;51.428;6.682;2024-01-27T11:43:53;12.10;;;4.93;;
11797;SDS011;5956;51.428;6.682;2024-01-27T11:46:20;10.97;;;5.07;;
11797;SDS011;5956;51.428;6.682;2024-01-27T11:51:44;11.57;;;4.87;;
11797;SDS011;5956;51.428;6.682;2024-01-27T11:54:11;12.97;;;5.13;;
11797;SDS011;5956;51.428;6.682;2024-01-27T11:56:39;10.83;;;4.67;;
11797;SDS011;5956;51.428;6.682;2024-01-27T11:59:07;13.57;;;5.87;;
11797;SDS011;5956;51.428;6.682;2024-01-27T12:01:36;11.33;;;5.33;;
11797;SDS011;5956;51.428;6.682;2024-01-27T12:04:03;9.97;;;4.63;;
11797;SDS011;5956;51.428;6.682;2024-01-27T12:06:30;8.67;;;4.57;;
11797;SDS011;5956;51.428;6.682;2024-01-27T12:08:58;10.23;;;5.83;;
11797;SDS011;5956;51.428;6.682;2024-01-27T12:11:26;11.53;;;5.27;;
11797;SDS011;5956;51.428;6.682;2024-01-27T12:13:52;12.30;;;5.30;;
11797;SDS011;5956;51.428;6.682;2024-01-27T12:16:20;13.17;;;5.73;;
11797;SDS011;5956;51.428;6.682;2024-01-27T12:18:46;10.25;;;5.07;;
11797;SDS011;5956;51.428;6.682;2024-01-27T12:21:13;13.80;;;5.18;;
11797;SDS011;5956;51.428;6.682;2024-01-27T12:23:50;14.52;;;5.38;;
11797;SDS011;5956;51.428;6.682;2024-01-27T12:26:18;9.73;;;4.82;;
11797;SDS011;5956;51.428;6.682;2024-01-27T12:28:45;11.27;;;4.72;;
11797;SDS011;5956;51.428;6.682;2024-01-27T12:31:13;9.60;;;4.95;;
11797;SDS011;5956;51.428;6.682;2024-01-27T12:33:41;12.10;;;5.80;;
11797;SDS011;5956;51.428;6.682;2024-01-27T12:36:14;12.50;;;5.38;;
11797;SDS011;5956;51.428;6.682;2024-01-27T12:38:41;9.70;;;5.03;;
11797;SDS011;5956;51.428;6.682;2024-01-27T12:41:10;11.45;;;5.25;;
11797;SDS011;5956;51.428;6.682;2024-01-27T12:43:45;7.72;;;4.00;;
11797;SDS011;5956;51.428;6.682;2024-01-27T12:46:17;12.77;;;4.43;;
11797;SDS011;5956;51.428;6.682;2024-01-27T12:48:45;8.70;;;4.20;;
11797;SDS011;5956;51.428;6.682;2024-01-27T12:51:19;9.25;;;4.38;;
11797;SDS011;5956;51.428;6.682;2024-01-27T12:53:48;9.07;;;4.40;;
11797;SDS011;5956;51.428;6.682;2024-01-27T12:56:19;10.23;;;4.67;;
11797;SDS011;5956;51.428;6.682;2024-01-27T12:58:54;8.10;;;4.10;;
11797;SDS011;5956;51.428;6.682;2024-01-27T13:01:22;9.83;;;4.23;;
11797;SDS011;5956;51.428;6.682;2024-01-27T13:03:49;8.97;;;4.50;;
11797;SDS011;5956;51.428;6.682;2024-01-27T13:06:17;12.13;;;4.17;;
11797;SDS011;5956;51.428;6.682;2024-01-27T13:08:45;5.40;;;3.10;;
11797;SDS011;5956;51.428;6.682;2024-01-27T13:11:12;10.80;;;4.32;;
11797;SDS011;5956;51.428;6.682;2024-01-27T13:13:39;8.52;;;4.30;;
11797;SDS011;5956;51.428;6.682;2024-01-27T13:16:07;7.15;;;3.50;;
11797;SDS011;5956;51.428;6.682;2024-01-27T13:18:33;5.30;;;3.17;;
11797;SDS011;5956;51.428;6.682;2024-01-27T13:21:00;7.70;;;3.70;;
11797;SDS011;5956;51.428;6.682;2024-01-27T13:23:27;9.38;;;3.80;;
11797;SDS011;5956;51.428;6.682;2024-01-27T13:25:55;6.00;;;3.65;;
11797;SDS011;5956;51.428;6.682;2024-01-27T13:28:22;8.90;;;3.95;;
11797;SDS011;5956;51.428;6.682;2024-01-27T13:30:49;14.30;;;6.93;;
11797;SDS011;5956;51.428;6.682;2024-01-27T13:33:17;7.75;;;3.85;;
11797;SDS011;5956;51.428;6.682;2024-01-27T13:35:44;8.40;;;4.10;;
11797;SDS011;5956;51.428;6.682;2024-01-27T13:38:12;12.57;;;4.73;;
11797;SDS011;5956;51.428;6.682;2024-01-27T13:40:38;5.13;;;3.27;;
11797;SDS011;5956;51.428;6.682;2024-01-27T13:43:05;8.17;;;3.47;;
11797;SDS011;5956;51.428;6.682;2024-01-27T13:45:31;7.63;;;3.27;;
11797;SDS011;5956;51.428;6.682;2024-01-27T13:47:58;7.80;;;3.03;;
11797;SDS011;5956;51.428;6.682;2024-01-27T13:50:26;8.37;;;3.53;;
11797;SDS011;5956;51.428;6.682;2024-01-27T13:52:56;5.97;;;3.67;;
11797;SDS011;5956;51.428;6.682;2024-01-27T13:55:23;10.40;;;3.50;;
11797;SDS011;5956;51.428;6.682;2024-01-27T13:57:50;11.10;;;3.53;;
11797;SDS011;5956;51.428;6.682;2024-01-27T14:00:17;6.87;;;3.63;;
11797;SDS011;5956;51.428;6.682;2024-01-27T14:02:44;12.33;;;4.03;;
11797;SDS011;5956;51.428;6.682;2024-01-27T14:05:11;8.33;;;3.20;;
11797;SDS011;5956;51.428;6.682;2024-01-27T14:07:38;9.03;;;3.40;;
11797;SDS011;5956;51.428;6.682;2024-01-27T14:10:05;7.50;;;3.50;;
11797;SDS011;5956;51.428;6.682;2024-01-27T14:12:32;8.70;;;3.73;;
11797;SDS011;5956;51.428;6.682;2024-01-27T14:15:02;6.50;;;3.40;;
11797;SDS011;5956;51.428;6.682;2024-01-27T14:17:28;8.63;;;2.87;;
11797;SDS011;5956;51.428;6.682;2024-01-27T14:19:55;8.00;;;3.07;;
11797;SDS011;5956;51.428;6.682;2024-01-27T14:22:21;10.67;;;3.77;;
11797;SDS011;5956;51.428;6.682;2024-01-27T14:24:50;9.83;;;3.60;;
11797;SDS011;5956;51.428;6.682;2024-01-27T14:27:17;8.10;;;3.60;;
11797;SDS011;5956;51.428;6.682;2024-01-27T14:29:50;7.93;;;3.03;;
11797;SDS011;5956;51.428;6.682;2024-01-27T14:32:17;7.37;;;3.43;;
11797;SDS011;5956;51.428;6.682;2024-01-27T14:34:43;6.37;;;3.37;;
11797;SDS011;5956;51.428;6.682;2024-01-27T14:37:10;5.93;;;3.43;;
11797;SDS011;5956;51.428;6.682;2024-01-27T14:39:36;9.40;;;3.50;;
11797;SDS011;5956;51.428;6.682;2024-01-27T14:42:05;9.53;;;3.23;;
11797;SDS011;5956;51.428;6.682;2024-01-27T14:44:33;8.00;;;3.40;;
11797;SDS011;5956;51.428;6.682;2024-01-27T14:46:59;8.17;;;2.77;;
11797;SDS011;5956;51.428;6.682;2024-01-27T14:49:26;6.93;;;2.70;;
11797;SDS011;5956;51.428;6.682;2024-01-27T14:51:53;9.43;;;3.17;;
11797;SDS011;5956;51.428;6.682;2024-01-27T14:54:20;9.43;;;2.80;;
11797;SDS011;5956;51.428;6.682;2024-01-27T14:56:46;7.30;;;2.97;;
11797;SDS011;5956;51.428;6.682;2024-01-27T14:59:14;6.47;;;2.97;;
11797;SDS011;5956;51.428;6.682;2024-01-27T15:01:41;4.30;;;2.67;;